createdAt,value
2019-01-30T00:00:32.654Z,146826.70
2019-01-30T00:01:38.683Z,146839.91
2019-01-30T00:02:45.244Z,146864.37
2019-01-30T00:03:51.179Z,146877.53
2019-01-30T00:04:57.114Z,146871.27
2019-01-30T00:06:03.106Z,146859.38
2019-01-30T00:07:08.386Z,146855.58
2019-01-30T00:08:14.355Z,146841.80
2019-01-30T00:09:20.338Z,146842.42
2019-01-30T00:10:25.583Z,146833.64
2019-01-30T00:11:31.869Z,146835.48
2019-01-30T00:12:38.138Z,146851.16
2019-01-30T00:13:43.790Z,146851.16
2019-01-30T00:14:49.745Z,146869.38
2019-01-30T00:15:56.675Z,146847.42
2019-01-30T00:17:01.739Z,146834.86
2019-01-30T00:18:07.008Z,146826.06
2019-01-30T00:19:13.027Z,146849.31
2019-01-30T00:20:18.986Z,146838.00
2019-01-30T00:21:24.933Z,146863.11
2019-01-30T00:22:30.932Z,146845.53
2019-01-30T00:23:36.900Z,146829.22
2019-01-30T00:24:42.855Z,146814.17
2019-01-30T00:25:48.881Z,146809.75
2019-01-30T00:26:55.835Z,146802.23
2019-01-30T00:28:02.653Z,146792.81
2019-01-30T00:29:09.000Z,146790.34
2019-01-30T00:30:23.166Z,146777.78
2019-01-30T00:31:28.821Z,146779.67
2019-01-30T00:32:34.922Z,146787.81
2019-01-30T00:33:40.891Z,146782.83
2019-01-30T00:34:47.469Z,146789.08
2019-01-30T00:35:53.394Z,146788.45
2019-01-30T00:36:59.418Z,146787.19
2019-01-30T00:38:05.022Z,146772.16
2019-01-30T00:39:10.987Z,146770.25
2019-01-30T00:40:16.226Z,146775.88
2019-01-30T00:41:23.194Z,146777.14
2019-01-30T00:42:29.274Z,146785.30
2019-01-30T00:43:35.260Z,146774.03
2019-01-30T00:44:41.181Z,146767.73
2019-01-30T00:45:47.266Z,146770.25
2019-01-30T00:46:53.198Z,146763.98
2019-01-30T00:47:58.844Z,146762.09
2019-01-30T00:49:04.446Z,146766.52
2019-01-30T00:50:09.701Z,146762.72
2019-01-30T00:51:15.652Z,146762.72
2019-01-30T00:52:21.282Z,146745.16
2019-01-30T00:53:27.260Z,146745.80
2019-01-30T00:54:33.303Z,146753.31
2019-01-30T00:55:38.539Z,146757.09
2019-01-30T00:56:44.501Z,146753.31
2019-01-30T00:57:50.532Z,146765.88
2019-01-30T00:58:56.504Z,146750.80
2019-01-30T01:00:02.116Z,146745.16
2019-01-30T01:01:07.379Z,146719.44
2019-01-30T01:02:12.930Z,146721.97
2019-01-30T01:03:18.907Z,146715.08
2019-01-30T01:04:24.472Z,146719.44
2019-01-30T01:05:30.452Z,146695.00
2019-01-30T01:06:36.454Z,146689.36
2019-01-30T01:07:41.737Z,146701.25
2019-01-30T01:08:47.413Z,146704.41
2019-01-30T01:09:52.984Z,146695.63
2019-01-30T01:10:58.601Z,146706.30
2019-01-30T01:12:03.962Z,146711.30
2019-01-30T01:13:09.981Z,146707.56
2019-01-30T01:14:16.111Z,146695.63
2019-01-30T01:15:21.864Z,146696.89
2019-01-30T01:16:27.839Z,146694.36
2019-01-30T01:17:33.902Z,146688.09
2019-01-30T01:18:39.871Z,146690.62
2019-01-30T01:19:45.876Z,146706.94
2019-01-30T01:20:51.834Z,146697.52
2019-01-30T01:21:57.482Z,146707.56
2019-01-30T01:23:03.495Z,146700.00
2019-01-30T01:24:09.473Z,146688.73
2019-01-30T01:25:14.862Z,146676.17
2019-01-30T01:26:20.823Z,146676.17
2019-01-30T01:27:26.466Z,146705.03
2019-01-30T01:28:32.464Z,146698.78
2019-01-30T01:29:38.117Z,146677.44
2019-01-30T01:30:44.089Z,146676.17
2019-01-30T01:31:50.507Z,146655.50
2019-01-30T01:32:56.293Z,146644.83
2019-01-30T01:34:02.245Z,146644.83
2019-01-30T01:35:07.634Z,146653.61
2019-01-30T01:36:13.204Z,146659.88
2019-01-30T01:37:19.166Z,146651.09
2019-01-30T01:38:25.162Z,146639.20
2019-01-30T01:39:31.169Z,146642.31
2019-01-30T01:40:36.862Z,146641.67
2019-01-30T01:41:42.839Z,146630.42
2019-01-30T01:42:48.818Z,146624.16
2019-01-30T01:43:54.821Z,146603.47
2019-01-30T01:45:00.739Z,146608.45
2019-01-30T01:46:06.403Z,146613.50
2019-01-30T01:47:12.386Z,146612.23
2019-01-30T01:48:18.105Z,146622.91
2019-01-30T01:49:24.091Z,146637.31
2019-01-30T01:50:30.101Z,146630.42
2019-01-30T01:51:36.091Z,146611.61
2019-01-30T01:52:41.694Z,146594.69
2019-01-30T01:53:47.714Z,146604.72
2019-01-30T01:54:53.689Z,146629.16
2019-01-30T01:55:59.655Z,146623.53
2019-01-30T01:57:05.622Z,146628.53
2019-01-30T01:58:11.606Z,146627.91
2019-01-30T01:59:17.294Z,146639.20
2019-01-30T02:00:23.447Z,146660.50
2019-01-30T02:01:28.369Z,146659.23
2019-01-30T02:02:34.345Z,146659.23
2019-01-30T02:03:40.307Z,146661.77
2019-01-30T02:04:46.379Z,146658.61
2019-01-30T02:05:52.321Z,146655.50
2019-01-30T02:06:58.263Z,146674.33
2019-01-30T02:08:03.619Z,146667.39
2019-01-30T02:09:08.788Z,146649.83
2019-01-30T02:10:15.104Z,146644.20
2019-01-30T02:11:21.085Z,146646.72
2019-01-30T02:12:27.057Z,146640.47
2019-01-30T02:13:33.042Z,146646.72
2019-01-30T02:14:39.734Z,146646.72
2019-01-30T02:15:45.904Z,146674.33
2019-01-30T02:16:51.903Z,146664.91
2019-01-30T02:17:57.827Z,146643.56
2019-01-30T02:19:03.804Z,146644.20
2019-01-30T02:20:10.550Z,146630.42
2019-01-30T02:21:15.851Z,146621.02
2019-01-30T02:22:21.845Z,146612.88
2019-01-30T02:23:27.881Z,146619.75
2019-01-30T02:24:33.870Z,146607.23
2019-01-30T02:25:39.553Z,146609.09
2019-01-30T02:26:45.569Z,146658.61
2019-01-30T02:27:51.592Z,146636.05
2019-01-30T02:28:57.597Z,146634.78
2019-01-30T02:30:02.880Z,146626.02
2019-01-30T02:31:08.851Z,146616.02
2019-01-30T02:32:15.144Z,146620.39
2019-01-30T02:33:21.138Z,146622.28
2019-01-30T02:34:27.086Z,146624.16
2019-01-30T02:35:34.037Z,146617.86
2019-01-30T02:36:45.697Z,146620.39
2019-01-30T02:37:51.310Z,146609.09
2019-01-30T02:38:57.338Z,146617.23
2019-01-30T02:40:03.218Z,146622.91
2019-01-30T02:41:09.301Z,146630.42
2019-01-30T02:42:15.303Z,146626.64
2019-01-30T02:43:21.498Z,146642.31
2019-01-30T02:44:27.594Z,146640.47
2019-01-30T02:45:33.598Z,146624.16
2019-01-30T02:46:39.585Z,146619.13
2019-01-30T02:47:45.264Z,146627.28
2019-01-30T02:48:51.311Z,146641.67
2019-01-30T02:49:57.314Z,146619.13
2019-01-30T02:51:03.316Z,146613.50
2019-01-30T02:52:09.099Z,146612.88
2019-01-30T02:53:15.135Z,146607.83
2019-01-30T02:54:21.462Z,146618.50
2019-01-30T02:55:27.021Z,146601.56
2019-01-30T02:56:33.577Z,146606.61
2019-01-30T02:57:40.196Z,146627.91
2019-01-30T02:58:46.222Z,146629.80
2019-01-30T02:59:52.191Z,146631.06
2019-01-30T03:00:59.486Z,146624.75
2019-01-30T03:02:03.599Z,146632.31
2019-01-30T03:03:09.591Z,146643.56
2019-01-30T03:04:15.597Z,146645.47
2019-01-30T03:05:20.845Z,146652.34
2019-01-30T03:06:26.824Z,146642.31
2019-01-30T03:07:32.810Z,146632.91
2019-01-30T03:08:38.803Z,146644.83
2019-01-30T03:09:44.798Z,146636.69
2019-01-30T03:10:50.785Z,146627.28
2019-01-30T03:11:56.768Z,146622.28
2019-01-30T03:13:02.723Z,146629.80
2019-01-30T03:14:08.761Z,146638.58
2019-01-30T03:15:14.678Z,146657.39
2019-01-30T03:16:20.627Z,146668.02
2019-01-30T03:17:26.597Z,146665.55
2019-01-30T03:18:32.577Z,146668.66
2019-01-30T03:19:38.667Z,146654.25
2019-01-30T03:20:44.659Z,146640.47
2019-01-30T03:21:50.595Z,146642.31
2019-01-30T03:22:56.539Z,146648.63
2019-01-30T03:24:02.563Z,146651.09
2019-01-30T03:25:07.842Z,146649.25
2019-01-30T03:26:13.853Z,146632.91
2019-01-30T03:27:19.808Z,146634.78
2019-01-30T03:28:25.834Z,146624.16
2019-01-30T03:29:31.868Z,146631.69
2019-01-30T03:30:37.802Z,146629.16
2019-01-30T03:31:43.773Z,146637.94
2019-01-30T03:32:49.739Z,146649.83
2019-01-30T03:33:55.769Z,146646.09
2019-01-30T03:35:01.413Z,146636.69
2019-01-30T03:36:07.390Z,146656.12
2019-01-30T03:37:13.921Z,146636.05
2019-01-30T03:38:19.895Z,146626.64
2019-01-30T03:39:26.851Z,146607.83
2019-01-30T03:40:32.621Z,146621.02
2019-01-30T03:41:37.895Z,146663.66
2019-01-30T03:42:43.912Z,146627.91
2019-01-30T03:43:49.954Z,146621.02
2019-01-30T03:44:56.008Z,146612.23
2019-01-30T03:46:02.006Z,146607.83
2019-01-30T03:47:07.954Z,146618.50
2019-01-30T03:48:13.916Z,146616.59
2019-01-30T03:49:19.871Z,146616.02
2019-01-30T03:50:25.860Z,146610.97
2019-01-30T03:51:31.864Z,146612.23
2019-01-30T03:52:37.156Z,146609.72
2019-01-30T03:53:43.082Z,146614.13
2019-01-30T03:54:48.716Z,146610.97
2019-01-30T03:55:54.669Z,146614.13
2019-01-30T03:57:00.663Z,146616.59
2019-01-30T03:58:06.602Z,146612.88
2019-01-30T03:59:12.585Z,146617.23
2019-01-30T04:00:18.577Z,146610.97
2019-01-30T04:01:26.697Z,146614.13
2019-01-30T04:02:29.879Z,146637.94
2019-01-30T04:03:35.485Z,146639.84
2019-01-30T04:04:41.486Z,146661.13
2019-01-30T04:05:47.475Z,146656.12
2019-01-30T04:06:53.136Z,146652.34
2019-01-30T04:07:59.067Z,146649.25
2019-01-30T04:09:04.112Z,146660.50
2019-01-30T04:10:11.998Z,146646.09
2019-01-30T04:11:18.030Z,146631.69
2019-01-30T04:12:24.015Z,146628.53
2019-01-30T04:13:29.956Z,146629.16
2019-01-30T04:14:35.998Z,146628.53
2019-01-30T04:15:41.991Z,146636.05
2019-01-30T04:16:48.094Z,146630.42
2019-01-30T04:17:54.050Z,146632.91
2019-01-30T04:19:00.056Z,146629.80
2019-01-30T04:20:05.347Z,146630.42
2019-01-30T04:21:11.351Z,146626.02
2019-01-30T04:22:17.365Z,146627.28
2019-01-30T04:23:23.032Z,146628.53
2019-01-30T04:24:29.099Z,146625.38
2019-01-30T04:25:35.177Z,146628.53
2019-01-30T04:26:41.278Z,146634.78
2019-01-30T04:27:47.347Z,146646.72
2019-01-30T04:28:53.448Z,146662.39
2019-01-30T04:29:59.449Z,146649.25
2019-01-30T04:31:04.906Z,146640.47
2019-01-30T04:32:10.605Z,146642.31
2019-01-30T04:33:16.750Z,146626.64
2019-01-30T04:34:22.949Z,146624.16
2019-01-30T04:35:28.811Z,146609.72
2019-01-30T04:36:35.017Z,146612.88
2019-01-30T04:37:41.108Z,146607.23
2019-01-30T04:38:47.172Z,146609.72
2019-01-30T04:39:53.199Z,146609.72
2019-01-30T04:40:59.241Z,146615.39
2019-01-30T04:42:04.627Z,146618.50
2019-01-30T04:43:12.047Z,146612.23
2019-01-30T04:44:18.696Z,146612.88
2019-01-30T04:45:24.963Z,146627.28
2019-01-30T04:46:31.040Z,146616.02
2019-01-30T04:47:37.095Z,146619.13
2019-01-30T04:48:43.241Z,146607.23
2019-01-30T04:49:49.332Z,146597.20
2019-01-30T04:50:55.531Z,146608.45
2019-01-30T04:52:01.750Z,146621.02
2019-01-30T04:53:07.922Z,146663.66
2019-01-30T04:54:13.945Z,146651.72
2019-01-30T04:55:19.658Z,146632.91
2019-01-30T04:56:25.703Z,146622.28
2019-01-30T04:57:31.841Z,146617.86
2019-01-30T04:58:37.679Z,146639.84
2019-01-30T04:59:43.558Z,146617.86
2019-01-30T05:00:49.134Z,146624.75
2019-01-30T05:01:55.418Z,146644.20
2019-01-30T05:03:01.430Z,146626.02
2019-01-30T05:04:08.055Z,146652.34
2019-01-30T05:05:14.381Z,146641.09
2019-01-30T05:06:20.457Z,146619.75
2019-01-30T05:07:26.471Z,146593.42
2019-01-30T05:08:32.397Z,146609.72
2019-01-30T05:09:38.399Z,146624.75
2019-01-30T05:10:44.062Z,146603.47
2019-01-30T05:11:50.220Z,146602.83
2019-01-30T05:12:56.384Z,146587.80
2019-01-30T05:14:03.241Z,146614.13
2019-01-30T05:15:10.165Z,146641.67
2019-01-30T05:16:15.856Z,146639.20
2019-01-30T05:17:21.967Z,146618.50
2019-01-30T05:18:28.223Z,146650.45
2019-01-30T05:19:34.492Z,146696.25
2019-01-30T05:20:40.460Z,146674.91
2019-01-30T05:21:46.165Z,146695.00
2019-01-30T05:22:52.138Z,146706.30
2019-01-30T05:23:58.067Z,146703.78
2019-01-30T05:25:03.706Z,146728.86
2019-01-30T05:26:09.730Z,146754.58
2019-01-30T05:27:15.367Z,146745.80
2019-01-30T05:28:21.313Z,146730.13
2019-01-30T05:29:27.345Z,146728.22
2019-01-30T05:30:32.589Z,146742.64
2019-01-30T05:31:38.585Z,146752.06
2019-01-30T05:32:44.197Z,146739.53
2019-01-30T05:33:50.222Z,146728.86
2019-01-30T05:34:56.193Z,146725.70
2019-01-30T05:36:02.172Z,146729.50
2019-01-30T05:37:08.212Z,146752.69
2019-01-30T05:38:13.821Z,146784.03
2019-01-30T05:39:19.893Z,146797.88
2019-01-30T05:40:25.574Z,146820.44
2019-01-30T05:41:31.568Z,146816.06
2019-01-30T05:42:37.817Z,146813.55
2019-01-30T05:43:43.956Z,146824.84
2019-01-30T05:44:49.950Z,146817.33
2019-01-30T05:45:55.930Z,146816.06
2019-01-30T05:47:01.927Z,146835.48
2019-01-30T05:48:08.025Z,146826.70
2019-01-30T05:49:14.009Z,146836.12
2019-01-30T05:50:20.073Z,146842.42
2019-01-30T05:51:26.146Z,146849.31
2019-01-30T05:52:32.118Z,146858.73
2019-01-30T05:53:38.064Z,146864.37
2019-01-30T05:54:44.076Z,146875.05
2019-01-30T05:55:49.750Z,146871.89
2019-01-30T05:56:55.752Z,146858.11
2019-01-30T05:58:01.784Z,146875.69
2019-01-30T05:59:07.742Z,146881.94
2019-01-30T06:00:18.459Z,146881.31
2019-01-30T06:01:24.450Z,146876.31
2019-01-30T06:02:30.606Z,146884.47
2019-01-30T06:03:36.595Z,146907.67
2019-01-30T06:04:42.669Z,146898.25
2019-01-30T06:05:48.321Z,146902.00
2019-01-30T06:06:54.298Z,146914.56
2019-01-30T06:08:00.443Z,146912.05
2019-01-30T06:09:05.762Z,146909.56
2019-01-30T06:10:11.026Z,146909.56
2019-01-30T06:11:17.079Z,146910.78
2019-01-30T06:12:23.059Z,146915.83
2019-01-30T06:13:29.046Z,146918.94
2019-01-30T06:14:35.117Z,146922.72
2019-01-30T06:15:41.119Z,146934.03
2019-01-30T06:16:47.114Z,146923.36
2019-01-30T06:17:53.084Z,146930.25
2019-01-30T06:18:59.054Z,146930.25
2019-01-30T06:20:04.329Z,146940.31
2019-01-30T06:21:10.377Z,146932.14
2019-01-30T06:22:16.343Z,146925.87
2019-01-30T06:23:22.293Z,146930.25
2019-01-30T06:24:28.320Z,146939.67
2019-01-30T06:25:34.338Z,146931.52
2019-01-30T06:26:40.373Z,146926.52
2019-01-30T06:28:51.454Z,146927.72
2019-01-30T06:29:58.107Z,146933.41
2019-01-30T06:31:03.746Z,146939.67
2019-01-30T06:32:09.696Z,146939.67
2019-01-30T06:33:16.251Z,146939.67
2019-01-30T06:34:22.217Z,146939.67
2019-01-30T06:35:28.251Z,146937.14
2019-01-30T06:36:34.254Z,146954.72
2019-01-30T06:37:39.898Z,146956.63
2019-01-30T06:38:45.912Z,146956.00
2019-01-30T06:39:51.874Z,146951.62
2019-01-30T06:40:57.937Z,146946.56
2019-01-30T06:42:03.935Z,146947.83
2019-01-30T06:43:09.677Z,146939.03
2019-01-30T06:44:15.689Z,146959.78
2019-01-30T06:45:21.289Z,146954.72
2019-01-30T06:46:27.273Z,146942.20
2019-01-30T06:47:33.222Z,146947.83
2019-01-30T06:48:39.209Z,146953.47
2019-01-30T06:49:45.658Z,146952.83
2019-01-30T06:50:53.411Z,146960.36
2019-01-30T06:51:59.391Z,146956.00
2019-01-30T06:53:04.703Z,146950.36
2019-01-30T06:54:10.753Z,146960.36
2019-01-30T06:55:16.772Z,146947.83
2019-01-30T06:56:22.722Z,146951.62
2019-01-30T06:57:28.702Z,146954.09
2019-01-30T06:58:34.693Z,146951.62
2019-01-30T06:59:40.710Z,146949.09
2019-01-30T07:00:46.881Z,146943.47
2019-01-30T07:01:52.441Z,146943.47
2019-01-30T07:02:57.702Z,146949.09
2019-01-30T07:04:03.694Z,146960.36
2019-01-30T07:05:08.936Z,146961.63
2019-01-30T07:06:14.909Z,146959.16
2019-01-30T07:07:20.917Z,146972.31
2019-01-30T07:08:26.919Z,146974.20
2019-01-30T07:09:32.893Z,146973.56
2019-01-30T07:10:38.870Z,146972.31
2019-01-30T07:11:44.903Z,146981.09
2019-01-30T07:12:50.191Z,146986.09
2019-01-30T07:13:56.201Z,146981.73
2019-01-30T07:15:02.221Z,146983.00
2019-01-30T07:16:08.263Z,146979.83
2019-01-30T07:17:13.906Z,146989.25
2019-01-30T07:18:19.898Z,146994.27
2019-01-30T07:19:25.948Z,146995.53
2019-01-30T07:20:31.564Z,146996.78
2019-01-30T07:21:37.526Z,146997.42
2019-01-30T07:22:42.778Z,146995.53
2019-01-30T07:23:48.396Z,147001.20
2019-01-30T07:24:54.415Z,147008.73
2019-01-30T07:26:00.517Z,147010.63
2019-01-30T07:27:06.188Z,147013.11
2019-01-30T07:28:12.190Z,147031.31
2019-01-30T07:29:18.177Z,147036.33
2019-01-30T07:30:23.412Z,147036.95
2019-01-30T07:31:29.407Z,147033.84
2019-01-30T07:32:42.150Z,147033.84
2019-01-30T07:33:42.688Z,147040.75
2019-01-30T07:34:48.640Z,147040.11
2019-01-30T07:35:54.682Z,147042.64
2019-01-30T07:37:00.656Z,147047.64
2019-01-30T07:38:05.912Z,147057.06
2019-01-30T07:39:12.271Z,147062.70
2019-01-30T07:40:17.932Z,147064.59
2019-01-30T07:41:24.003Z,147064.59
2019-01-30T07:42:29.989Z,147078.41
2019-01-30T07:43:36.109Z,147104.78
2019-01-30T07:44:50.560Z,147101.03
2019-01-30T07:45:48.190Z,147096.61
2019-01-30T07:46:54.502Z,147101.03
2019-01-30T07:48:00.496Z,147099.14
2019-01-30T07:49:06.465Z,147101.03
2019-01-30T07:50:11.765Z,147107.31
2019-01-30T07:51:17.447Z,147128.05
2019-01-30T07:52:23.062Z,147131.16
2019-01-30T07:53:29.729Z,147126.78
2019-01-30T07:54:36.248Z,147128.64
2019-01-30T07:55:42.287Z,147130.53
2019-01-30T07:56:47.987Z,147151.28
2019-01-30T07:57:53.284Z,147153.17
2019-01-30T07:58:59.274Z,147147.48
2019-01-30T08:00:04.554Z,147153.17
2019-01-30T08:01:10.227Z,147153.17
2019-01-30T08:02:15.527Z,147155.66
2019-01-30T08:03:21.543Z,147175.78
2019-01-30T08:04:27.524Z,147170.14
2019-01-30T08:05:33.630Z,147168.88
2019-01-30T08:06:39.694Z,147171.98
2019-01-30T08:07:45.340Z,147178.30
2019-01-30T08:08:51.350Z,147176.41
2019-01-30T08:09:57.329Z,147178.30
2019-01-30T08:11:03.414Z,147185.84
2019-01-30T08:12:09.376Z,147190.84
2019-01-30T08:13:15.361Z,147192.73
2019-01-30T08:14:20.926Z,147197.11
2019-01-30T08:15:26.179Z,147201.53
2019-01-30T08:16:32.249Z,147207.17
2019-01-30T08:17:38.212Z,147213.44
2019-01-30T08:18:44.246Z,147216.61
2019-01-30T08:19:51.973Z,147220.39
2019-01-30T08:20:56.344Z,147223.50
2019-01-30T08:22:02.313Z,147226.03
2019-01-30T08:23:08.744Z,147232.31
2019-01-30T08:24:14.476Z,147234.20
2019-01-30T08:25:19.946Z,147236.09
2019-01-30T08:26:26.230Z,147239.84
2019-01-30T08:27:33.960Z,147243.00
2019-01-30T08:28:37.508Z,147243.63
2019-01-30T08:29:43.934Z,147250.53
2019-01-30T08:30:50.410Z,147249.91
2019-01-30T08:31:57.095Z,147254.91
2019-01-30T08:33:05.413Z,147252.42
2019-01-30T08:34:08.775Z,147262.50
2019-01-30T08:35:14.100Z,147263.70
2019-01-30T08:36:20.863Z,147272.50
2019-01-30T08:37:27.180Z,147271.87
2019-01-30T08:38:33.141Z,147272.50
2019-01-30T08:39:39.148Z,147281.31
2019-01-30T08:40:45.114Z,147280.05
2019-01-30T08:41:51.178Z,147280.05
2019-01-30T08:42:56.791Z,147283.83
2019-01-30T08:44:02.450Z,147284.47
2019-01-30T08:45:09.125Z,147300.17
2019-01-30T08:46:15.226Z,147298.28
2019-01-30T08:47:21.187Z,147290.75
2019-01-30T08:48:29.933Z,147313.98
2019-01-30T08:49:33.216Z,147304.59
2019-01-30T08:50:38.882Z,147305.81
2019-01-30T08:51:44.535Z,147305.19
2019-01-30T08:52:50.481Z,147300.17
2019-01-30T08:53:56.386Z,147309.61
2019-01-30T08:55:02.437Z,147312.77
2019-01-30T08:56:08.416Z,147307.08
2019-01-30T08:57:14.113Z,147312.77
2019-01-30T08:58:20.116Z,147312.77
2019-01-30T08:59:26.699Z,147319.67
2019-01-30T09:00:31.990Z,147315.25
2019-01-30T09:01:38.016Z,147320.94
2019-01-30T09:02:44.013Z,147324.69
2019-01-30T09:03:50.363Z,147322.78
2019-01-30T09:04:55.996Z,147330.31
2019-01-30T09:06:02.026Z,147327.84
2019-01-30T09:07:08.121Z,147327.84
2019-01-30T09:08:13.792Z,147335.37
2019-01-30T09:09:19.821Z,147337.28
2019-01-30T09:10:26.282Z,147343.55
2019-01-30T09:11:32.256Z,147351.72
2019-01-30T09:12:38.324Z,147355.47
2019-01-30T09:13:44.305Z,147377.50
2019-01-30T09:14:50.320Z,147375.59
2019-01-30T09:15:56.246Z,147378.12
2019-01-30T09:17:02.258Z,147386.30
2019-01-30T09:18:07.600Z,147398.22
2019-01-30T09:19:13.582Z,147388.19
2019-01-30T09:20:19.490Z,147379.39
2019-01-30T09:21:25.577Z,147390.67
2019-01-30T09:22:31.544Z,147372.44
2019-01-30T09:23:37.464Z,147377.50
2019-01-30T09:24:43.458Z,147373.06
2019-01-30T09:25:49.458Z,147374.97
2019-01-30T09:26:55.628Z,147378.75
2019-01-30T09:28:01.001Z,147374.97
2019-01-30T09:29:06.931Z,147364.91
2019-01-30T09:30:14.974Z,147358.63
2019-01-30T09:31:21.036Z,147359.89
2019-01-30T09:32:27.030Z,147362.42
2019-01-30T09:33:33.465Z,147374.97
2019-01-30T09:34:39.433Z,147376.86
2019-01-30T09:35:45.434Z,147383.77
2019-01-30T09:36:51.478Z,147381.88
2019-01-30T09:37:57.163Z,147385.03
2019-01-30T09:39:03.011Z,147380.66
2019-01-30T09:40:09.250Z,147391.31
2019-01-30T09:41:15.638Z,147395.09
2019-01-30T09:42:21.695Z,147397.00
2019-01-30T09:43:27.546Z,147406.38
2019-01-30T09:44:33.679Z,147415.83
2019-01-30T09:45:39.611Z,147442.88
2019-01-30T09:46:45.540Z,147477.45
2019-01-30T09:47:51.484Z,147447.30
2019-01-30T09:48:57.474Z,147433.44
2019-01-30T09:50:02.835Z,147440.34
2019-01-30T09:51:08.846Z,147446.66
2019-01-30T09:52:15.425Z,147432.16
2019-01-30T09:53:21.354Z,147437.86
2019-01-30T09:54:27.338Z,147444.77
2019-01-30T09:55:33.482Z,147447.30
2019-01-30T09:56:39.430Z,147470.55
2019-01-30T09:57:45.050Z,147473.08
2019-01-30T09:58:51.003Z,147470.55
2019-01-30T09:59:56.954Z,147491.28
2019-01-30T10:01:02.507Z,147486.91
2019-01-30T10:02:08.142Z,147472.45
2019-01-30T10:03:14.123Z,147478.09
2019-01-30T10:04:20.071Z,147483.73
2019-01-30T10:05:25.988Z,147512.05
2019-01-30T10:06:31.575Z,147515.80
2019-01-30T10:07:37.339Z,147525.87
2019-01-30T10:08:43.256Z,147534.05
2019-01-30T10:09:49.175Z,147532.78
2019-01-30T10:10:55.190Z,147522.77
2019-01-30T10:12:01.207Z,147528.41
2019-01-30T10:13:06.481Z,147531.56
2019-01-30T10:14:13.116Z,147523.39
2019-01-30T10:15:18.359Z,147556.72
2019-01-30T10:16:24.308Z,147551.66
2019-01-30T10:17:31.166Z,147554.19
2019-01-30T10:18:36.388Z,147551.03
2019-01-30T10:19:42.479Z,147544.75
2019-01-30T10:20:47.707Z,147529.67
2019-01-30T10:21:53.713Z,147552.30
2019-01-30T10:23:00.554Z,147563.00
2019-01-30T10:24:06.277Z,147557.94
2019-01-30T10:25:11.556Z,147554.19
2019-01-30T10:26:17.549Z,147555.47
2019-01-30T10:27:23.562Z,147560.47
2019-01-30T10:28:29.907Z,147571.81
2019-01-30T10:29:35.942Z,147550.41
2019-01-30T10:30:41.255Z,147580.00
2019-01-30T10:31:47.203Z,147557.36
2019-01-30T10:32:53.204Z,147562.38
2019-01-30T10:33:59.212Z,147585.00
2019-01-30T10:35:04.471Z,147581.25
2019-01-30T10:36:10.080Z,147608.27
2019-01-30T10:37:15.353Z,147624.03
2019-01-30T10:38:21.357Z,147612.06
2019-01-30T10:39:27.342Z,147595.72
2019-01-30T10:40:33.433Z,147589.44
2019-01-30T10:41:39.045Z,147610.17
2019-01-30T10:42:44.684Z,147624.67
2019-01-30T10:43:50.717Z,147601.36
2019-01-30T10:44:56.642Z,147586.91
2019-01-30T10:46:02.620Z,147622.78
2019-01-30T10:47:08.590Z,147620.88
2019-01-30T10:48:14.401Z,147613.97
2019-01-30T10:49:20.375Z,147632.22
2019-01-30T10:50:25.877Z,147646.67
2019-01-30T10:51:31.490Z,147636.59
2019-01-30T10:52:36.770Z,147640.41
2019-01-30T10:53:42.699Z,147651.69
2019-01-30T10:54:48.648Z,147668.69
2019-01-30T10:55:54.587Z,147648.58
2019-01-30T10:56:59.880Z,147659.88
2019-01-30T10:58:05.169Z,147658.02
2019-01-30T10:59:11.171Z,147667.41
2019-01-30T11:00:27.438Z,147705.20
2019-01-30T11:01:33.354Z,147730.38
2019-01-30T11:02:38.957Z,147735.39
2019-01-30T11:03:45.683Z,147714.66
2019-01-30T11:04:51.695Z,147719.66
2019-01-30T11:05:57.276Z,147764.38
2019-01-30T11:07:03.179Z,147761.20
2019-01-30T11:08:08.489Z,147733.53
2019-01-30T11:09:14.073Z,147749.27
2019-01-30T11:10:19.380Z,147757.45
2019-01-30T11:11:25.024Z,147760.56
2019-01-30T11:12:31.589Z,147822.28
2019-01-30T11:13:37.601Z,147834.89
2019-01-30T11:14:43.648Z,147862.56
2019-01-30T11:15:49.677Z,147909.20
2019-01-30T11:16:55.607Z,147900.38
2019-01-30T11:18:00.905Z,147872.02
2019-01-30T11:19:06.486Z,147916.75
2019-01-30T11:20:13.430Z,147956.42
2019-01-30T11:21:19.356Z,147977.86
2019-01-30T11:22:25.312Z,147931.22
2019-01-30T11:23:31.375Z,147909.83
2019-01-30T11:24:37.348Z,147857.56
2019-01-30T11:25:43.520Z,147867.00
2019-01-30T11:26:49.477Z,147854.39
2019-01-30T11:27:55.466Z,147875.19
2019-01-30T11:29:01.085Z,147890.30
2019-01-30T11:30:06.490Z,147898.47
2019-01-30T11:31:12.472Z,147891.56
2019-01-30T11:32:17.730Z,147861.94
2019-01-30T11:33:23.768Z,147880.84
2019-01-30T11:34:29.689Z,147918.66
2019-01-30T11:35:34.958Z,147902.28
2019-01-30T11:36:40.889Z,147894.69
2019-01-30T11:37:46.154Z,147929.33
2019-01-30T11:38:52.223Z,147968.41
2019-01-30T11:39:58.143Z,147977.23
2019-01-30T11:41:04.034Z,147947.59
2019-01-30T11:42:10.384Z,147940.67
2019-01-30T11:43:17.302Z,147923.67
2019-01-30T11:44:23.255Z,147963.97
2019-01-30T11:45:30.253Z,147930.59
2019-01-30T11:46:36.264Z,147957.05
2019-01-30T11:47:43.043Z,147976.59
2019-01-30T11:48:56.195Z,147974.06
2019-01-30T11:49:55.649Z,148007.44
2019-01-30T11:51:01.251Z,148040.84
2019-01-30T11:52:06.575Z,148006.19
2019-01-30T11:53:12.270Z,147972.16
2019-01-30T11:54:18.233Z,147965.87
2019-01-30T11:55:23.548Z,147960.84
2019-01-30T11:56:29.257Z,147935.66
2019-01-30T11:57:34.957Z,147982.87
2019-01-30T11:58:41.073Z,147976.59
2019-01-30T11:59:47.111Z,147983.52
2019-01-30T12:00:55.377Z,147965.87
2019-01-30T12:02:01.165Z,147976.59
2019-01-30T12:03:06.437Z,148000.53
2019-01-30T12:04:17.992Z,148026.36
2019-01-30T12:05:17.824Z,148004.28
2019-01-30T12:06:23.940Z,148025.72
2019-01-30T12:07:29.928Z,147998.00
2019-01-30T12:08:35.553Z,148016.91
2019-01-30T12:09:41.489Z,148015.64
2019-01-30T12:10:47.076Z,148076.78
2019-01-30T12:11:53.147Z,148064.14
2019-01-30T12:12:59.271Z,148112.06
2019-01-30T12:14:04.967Z,148141.67
2019-01-30T12:15:11.856Z,148117.73
2019-01-30T12:16:17.851Z,148124.66
2019-01-30T12:17:23.856Z,148136.02
2019-01-30T12:18:29.843Z,148044.00
2019-01-30T12:19:35.811Z,148084.33
2019-01-30T12:20:41.794Z,148111.44
2019-01-30T12:21:47.483Z,148074.87
2019-01-30T12:22:52.805Z,148067.31
2019-01-30T12:23:58.905Z,148079.31
2019-01-30T12:25:04.216Z,148107.00
2019-01-30T12:26:10.458Z,148088.13
2019-01-30T12:27:16.407Z,148074.23
2019-01-30T12:28:22.110Z,148044.00
2019-01-30T12:29:28.140Z,148027.00
2019-01-30T12:30:33.698Z,148015.00
2019-01-30T12:31:39.666Z,148046.50
2019-01-30T12:32:45.661Z,148057.86
2019-01-30T12:33:51.565Z,148036.45